sensor_id;sensor_type;location;lat;lon;timestamp;pressure;altitude;pressure_sealevel;temperature;humidity
4767;BME280;2397;53.576;9.746;2023-12-22T00:01:09;98906.44;;;4.75;98.92
4767;BME280;2397;53.576;9.746;2023-12-22T00:03:36;98918.38;;;4.77;99.90
4767;BME280;2397;53.576;9.746;2023-12-22T00:06:02;98927.88;;;4.78;100.00
4767;BME280;2397;53.576;9.746;2023-12-22T00:08:29;98920.97;;;4.77;100.00
4767;BME280;2397;53.576;9.746;2023-12-22T00:10:56;98921.13;;;4.76;100.00
4767;BME280;2397;53.576;9.746;2023-12-22T00:13:23;98936.31;;;4.72;100.00
4767;BME280;2397;53.576;9.746;2023-12-22T00:15:49;98944.31;;;4.71;100.00
4767;BME280;2397;53.576;9.746;2023-12-22T00:18:16;98924.03;;;4.65;100.00
4767;BME280;2397;53.576;9.746;2023-12-22T00:20:42;98927.28;;;4.59;100.00
4767;BME280;2397;53.576;9.746;2023-12-22T00:23:09;98932.81;;;4.56;100.00
4767;BME280;2397;53.576;9.746;2023-12-22T00:25:35;98934.41;;;4.49;100.00
4767;BME280;2397;53.576;9.746;2023-12-22T00:28:02;98929.50;;;4.46;100.00
4767;BME280;2397;53.576;9.746;2023-12-22T00:30:29;98943.25;;;4.48;100.00
4767;BME280;2397;53.576;9.746;2023-12-22T00:32:55;98948.78;;;4.45;100.00
4767;BME280;2397;53.576;9.746;2023-12-22T00:35:22;98929.00;;;4.42;99.93
4767;BME280;2397;53.576;9.746;2023-12-22T00:37:48;98938.31;;;4.45;98.87
4767;BME280;2397;53.576;9.746;2023-12-22T00:40:15;98933.56;;;4.40;98.23
4767;BME280;2397;53.576;9.746;2023-12-22T00:42:42;98936.69;;;4.44;97.73
4767;BME280;2397;53.576;9.746;2023-12-22T00:45:09;98939.19;;;4.28;100.00
4767;BME280;2397;53.576;9.746;2023-12-22T00:47:35;98932.41;;;4.09;100.00
4767;BME280;2397;53.576;9.746;2023-12-22T00:50:03;98939.97;;;3.95;100.00
4767;BME280;2397;53.576;9.746;2023-12-22T00:52:31;98946.97;;;3.86;100.00
4767;BME280;2397;53.576;9.746;2023-12-22T00:54:59;98926.44;;;3.91;100.00
4767;BME280;2397;53.576;9.746;2023-12-22T00:57:25;98924.03;;;3.98;100.00
4767;BME280;2397;53.576;9.746;2023-12-22T00:59:52;98947.63;;;4.14;99.81
4767;BME280;2397;53.576;9.746;2023-12-22T01:02:19;98950.84;;;4.08;100.00
4767;BME280;2397;53.576;9.746;2023-12-22T01:04:46;98943.16;;;4.06;100.00
4767;BME280;2397;53.576;9.746;2023-12-22T01:07:13;98944.09;;;3.97;100.00
4767;BME280;2397;53.576;9.746;2023-12-22T01:09:40;98956.75;;;3.92;100.00
4767;BME280;2397;53.576;9.746;2023-12-22T01:12:08;98967.34;;;3.91;100.00
4767;BME280;2397;53.576;9.746;2023-12-22T01:14:37;98955.97;;;3.92;100.00
4767;BME280;2397;53.576;9.746;2023-12-22T01:17:04;98955.97;;;3.92;100.00
4767;BME280;2397;53.576;9.746;2023-12-22T01:19:31;98972.13;;;3.95;100.00
4767;BME280;2397;53.576;9.746;2023-12-22T01:21:57;98972.97;;;3.96;100.00
4767;BME280;2397;53.576;9.746;2023-12-22T01:24:24;98971.47;;;3.93;100.00
4767;BME280;2397;53.576;9.746;2023-12-22T01:26:50;98972.97;;;3.96;100.00
4767;BME280;2397;53.576;9.746;2023-12-22T01:29:17;98988.69;;;3.86;100.00
4767;BME280;2397;53.576;9.746;2023-12-22T01:31:43;99013.63;;;3.81;100.00
4767;BME280;2397;53.576;9.746;2023-12-22T01:34:10;99009.13;;;3.55;100.00
4767;BME280;2397;53.576;9.746;2023-12-22T01:36:36;99025.28;;;3.41;100.00
4767;BME280;2397;53.576;9.746;2023-12-22T01:39:03;99024.31;;;3.25;100.00
4767;BME280;2397;53.576;9.746;2023-12-22T01:41:32;99018.38;;;3.05;100.00
4767;BME280;2397;53.576;9.746;2023-12-22T01:43:58;99026.09;;;2.97;100.00
4767;BME280;2397;53.576;9.746;2023-12-22T01:46:25;99024.22;;;2.90;100.00
4767;BME280;2397;53.576;9.746;2023-12-22T01:48:52;99013.25;;;2.86;100.00
4767;BME280;2397;53.576;9.746;2023-12-22T01:51:18;99017.91;;;2.92;100.00
4767;BME280;2397;53.576;9.746;2023-12-22T01:53:46;99011.50;;;2.87;100.00
4767;BME280;2397;53.576;9.746;2023-12-22T01:56:12;99001.22;;;2.85;100.00
4767;BME280;2397;53.576;9.746;2023-12-22T01:58:39;99002.31;;;2.83;100.00
4767;BME280;2397;53.576;9.746;2023-12-22T02:01:17;99017.13;;;2.82;100.00
4767;BME280;2397;53.576;9.746;2023-12-22T02:03:44;99007.09;;;2.87;100.00
4767;BME280;2397;53.576;9.746;2023-12-22T02:06:10;99009.31;;;2.82;100.00
4767;BME280;2397;53.576;9.746;2023-12-22T02:08:37;99015.09;;;2.76;100.00
4767;BME280;2397;53.576;9.746;2023-12-22T02:11:04;99011.81;;;2.74;100.00
4767;BME280;2397;53.576;9.746;2023-12-22T02:13:30;99016.34;;;2.72;100.00
4767;BME280;2397;53.576;9.746;2023-12-22T02:16:04;99013.22;;;2.69;100.00
4767;BME280;2397;53.576;9.746;2023-12-22T02:18:34;99002.66;;;2.70;100.00
4767;BME280;2397;53.576;9.746;2023-12-22T02:21:02;98999.34;;;2.68;100.00
4767;BME280;2397;53.576;9.746;2023-12-22T02:23:30;99010.06;;;2.65;100.00
4767;BME280;2397;53.576;9.746;2023-12-22T02:26:06;98980.84;;;2.71;100.00
4767;BME280;2397;53.576;9.746;2023-12-22T02:28:34;98976.31;;;2.73;100.00
4767;BME280;2397;53.576;9.746;2023-12-22T02:31:12;98976.00;;;2.86;100.00
4767;BME280;2397;53.576;9.746;2023-12-22T02:33:42;98964.25;;;2.99;100.00
4767;BME280;2397;53.576;9.746;2023-12-22T02:36:10;98960.47;;;3.11;100.00
4767;BME280;2397;53.576;9.746;2023-12-22T02:38:40;98948.56;;;3.26;100.00
4767;BME280;2397;53.576;9.746;2023-12-22T02:41:07;98949.47;;;3.35;100.00
4767;BME280;2397;53.576;9.746;2023-12-22T02:43:35;98946.56;;;3.38;100.00
4767;BME280;2397;53.576;9.746;2023-12-22T02:46:02;98936.34;;;3.44;100.00
4767;BME280;2397;53.576;9.746;2023-12-22T02:48:28;98930.59;;;3.41;100.00
4767;BME280;2397;53.576;9.746;2023-12-22T02:50:55;98999.22;;;3.41;100.00
4767;BME280;2397;53.576;9.746;2023-12-22T02:53:21;99016.81;;;3.39;100.00
4767;BME280;2397;53.576;9.746;2023-12-22T02:55:48;99025.13;;;3.25;100.00
4767;BME280;2397;53.576;9.746;2023-12-22T02:58:15;99027.22;;;2.95;100.00
4767;BME280;2397;53.576;9.746;2023-12-22T03:00:41;99024.47;;;2.69;100.00
4767;BME280;2397;53.576;9.746;2023-12-22T03:03:09;99007.16;;;2.41;100.00
4767;BME280;2397;53.576;9.746;2023-12-22T03:05:35;99010.75;;;2.31;100.00
4767;BME280;2397;53.576;9.746;2023-12-22T03:08:02;99026.34;;;2.21;100.00
4767;BME280;2397;53.576;9.746;2023-12-22T03:10:29;99025.16;;;2.25;100.00
4767;BME280;2397;53.576;9.746;2023-12-22T03:12:56;99030.03;;;2.28;100.00
4767;BME280;2397;53.576;9.746;2023-12-22T03:15:23;99020.84;;;2.34;100.00
4767;BME280;2397;53.576;9.746;2023-12-22T03:17:49;99028.28;;;2.29;100.00
4767;BME280;2397;53.576;9.746;2023-12-22T03:20:16;99016.91;;;2.20;100.00
4767;BME280;2397;53.576;9.746;2023-12-22T03:22:43;99009.81;;;2.13;100.00
4767;BME280;2397;53.576;9.746;2023-12-22T03:25:10;99010.63;;;2.13;100.00
4767;BME280;2397;53.576;9.746;2023-12-22T03:27:36;99009.25;;;2.19;100.00
4767;BME280;2397;53.576;9.746;2023-12-22T03:30:03;99006.03;;;2.44;100.00
4767;BME280;2397;53.576;9.746;2023-12-22T03:32:30;98995.13;;;2.67;100.00
4767;BME280;2397;53.576;9.746;2023-12-22T03:34:56;98994.84;;;2.70;100.00
4767;BME280;2397;53.576;9.746;2023-12-22T03:37:23;98995.50;;;2.72;100.00
4767;BME280;2397;53.576;9.746;2023-12-22T03:39:50;98993.03;;;2.80;100.00
4767;BME280;2397;53.576;9.746;2023-12-22T03:42:16;98988.31;;;2.84;100.00
4767;BME280;2397;53.576;9.746;2023-12-22T03:44:43;98984.03;;;2.92;100.00
4767;BME280;2397;53.576;9.746;2023-12-22T03:47:09;98984.69;;;2.94;100.00
4767;BME280;2397;53.576;9.746;2023-12-22T03:49:36;98983.97;;;3.02;100.00
4767;BME280;2397;53.576;9.746;2023-12-22T03:52:03;98988.75;;;3.06;100.00
4767;BME280;2397;53.576;9.746;2023-12-22T03:54:29;98982.94;;;3.12;100.00
4767;BME280;2397;53.576;9.746;2023-12-22T03:56:56;98968.66;;;3.16;100.00
4767;BME280;2397;53.576;9.746;2023-12-22T03:59:22;98983.56;;;3.06;100.00
4767;BME280;2397;53.576;9.746;2023-12-22T04:01:52;98978.38;;;2.97;100.00
4767;BME280;2397;53.576;9.746;2023-12-22T04:04:19;98976.59;;;2.97;100.00
4767;BME280;2397;53.576;9.746;2023-12-22T04:06:49;98978.97;;;2.91;100.00
4767;BME280;2397;53.576;9.746;2023-12-22T04:09:16;98987.00;;;2.97;100.00
4767;BME280;2397;53.576;9.746;2023-12-22T04:11:42;98993.28;;;3.04;100.00
4767;BME280;2397;53.576;9.746;2023-12-22T04:14:09;98990.41;;;3.07;100.00
4767;BME280;2397;53.576;9.746;2023-12-22T04:16:38;98990.41;;;3.07;100.00
4767;BME280;2397;53.576;9.746;2023-12-22T04:19:05;98990.41;;;3.07;100.00
4767;BME280;2397;53.576;9.746;2023-12-22T04:21:37;98985.69;;;3.11;100.00
4767;BME280;2397;53.576;9.746;2023-12-22T04:24:04;98977.06;;;3.10;100.00
4767;BME280;2397;53.576;9.746;2023-12-22T04:26:30;98983.50;;;3.33;100.00
4767;BME280;2397;53.576;9.746;2023-12-22T04:28:57;98990.59;;;3.58;100.00
4767;BME280;2397;53.576;9.746;2023-12-22T04:31:24;98991.56;;;3.75;100.00
4767;BME280;2397;53.576;9.746;2023-12-22T04:33:51;98981.97;;;3.84;100.00
4767;BME280;2397;53.576;9.746;2023-12-22T04:36:17;98992.16;;;3.95;100.00
4767;BME280;2397;53.576;9.746;2023-12-22T04:38:44;98983.09;;;3.99;100.00
4767;BME280;2397;53.576;9.746;2023-12-22T04:41:10;98982.88;;;3.92;99.81
4767;BME280;2397;53.576;9.746;2023-12-22T04:43:37;98974.09;;;3.76;100.00
4767;BME280;2397;53.576;9.746;2023-12-22T04:46:03;98981.91;;;3.76;100.00
4767;BME280;2397;53.576;9.746;2023-12-22T04:48:30;98974.09;;;3.93;98.53
4767;BME280;2397;53.576;9.746;2023-12-22T04:50:57;98977.09;;;4.06;96.57
4767;BME280;2397;53.576;9.746;2023-12-22T04:53:24;98969.78;;;4.10;96.48
4767;BME280;2397;53.576;9.746;2023-12-22T04:55:51;98952.19;;;4.12;95.49
4767;BME280;2397;53.576;9.746;2023-12-22T04:58:17;98954.78;;;4.12;94.64
4767;BME280;2397;53.576;9.746;2023-12-22T05:00:44;98942.25;;;4.15;94.76
4767;BME280;2397;53.576;9.746;2023-12-22T05:03:10;98966.41;;;4.17;94.89
4767;BME280;2397;53.576;9.746;2023-12-22T05:05:37;98970.00;;;4.16;96.23
4767;BME280;2397;53.576;9.746;2023-12-22T05:08:04;98978.72;;;4.25;95.83
4767;BME280;2397;53.576;9.746;2023-12-22T05:10:31;98990.47;;;4.29;95.67
4767;BME280;2397;53.576;9.746;2023-12-22T05:12:57;99020.00;;;4.29;96.32
4767;BME280;2397;53.576;9.746;2023-12-22T05:15:24;99051.31;;;3.68;100.00
4767;BME280;2397;53.576;9.746;2023-12-22T05:17:50;99041.31;;;2.75;100.00
4767;BME280;2397;53.576;9.746;2023-12-22T05:20:17;99036.44;;;2.43;100.00
4767;BME280;2397;53.576;9.746;2023-12-22T05:22:44;99034.59;;;2.26;100.00
4767;BME280;2397;53.576;9.746;2023-12-22T05:25:13;99033.50;;;2.19;100.00
4767;BME280;2397;53.576;9.746;2023-12-22T05:27:39;99038.31;;;2.14;100.00
4767;BME280;2397;53.576;9.746;2023-12-22T05:30:08;99029.53;;;2.15;100.00
4767;BME280;2397;53.576;9.746;2023-12-22T05:32:34;99027.22;;;2.12;100.00
4767;BME280;2397;53.576;9.746;2023-12-22T05:35:01;99027.06;;;2.14;100.00
4767;BME280;2397;53.576;9.746;2023-12-22T05:37:28;99017.19;;;2.17;100.00
4767;BME280;2397;53.576;9.746;2023-12-22T05:39:54;99040.19;;;2.31;100.00
4767;BME280;2397;53.576;9.746;2023-12-22T05:42:21;99085.50;;;2.48;100.00
4767;BME280;2397;53.576;9.746;2023-12-22T05:44:48;99089.34;;;2.34;100.00
4767;BME280;2397;53.576;9.746;2023-12-22T05:47:16;99066.78;;;2.25;100.00
4767;BME280;2397;53.576;9.746;2023-12-22T05:49:43;99071.03;;;2.26;100.00
4767;BME280;2397;53.576;9.746;2023-12-22T05:52:11;99077.34;;;2.14;100.00
4767;BME280;2397;53.576;9.746;2023-12-22T05:54:38;99085.28;;;2.13;100.00
4767;BME280;2397;53.576;9.746;2023-12-22T05:57:05;99098.16;;;2.14;100.00
4767;BME280;2397;53.576;9.746;2023-12-22T05:59:33;99100.06;;;2.12;100.00
4767;BME280;2397;53.576;9.746;2023-12-22T06:02:01;99117.03;;;2.26;100.00
4767;BME280;2397;53.576;9.746;2023-12-22T06:04:29;99075.09;;;2.38;100.00
4767;BME280;2397;53.576;9.746;2023-12-22T06:06:56;99061.97;;;2.30;100.00
4767;BME280;2397;53.576;9.746;2023-12-22T06:09:22;99072.88;;;2.43;100.00
4767;BME280;2397;53.576;9.746;2023-12-22T06:11:49;99077.78;;;2.65;100.00
4767;BME280;2397;53.576;9.746;2023-12-22T06:14:15;99070.56;;;2.86;100.00
4767;BME280;2397;53.576;9.746;2023-12-22T06:16:42;99058.16;;;2.80;100.00
4767;BME280;2397;53.576;9.746;2023-12-22T06:19:08;99070.81;;;2.93;100.00
4767;BME280;2397;53.576;9.746;2023-12-22T06:21:39;99062.53;;;3.07;100.00
4767;BME280;2397;53.576;9.746;2023-12-22T06:24:06;99081.69;;;3.15;100.00
4767;BME280;2397;53.576;9.746;2023-12-22T06:26:33;99096.66;;;3.40;100.00
4767;BME280;2397;53.576;9.746;2023-12-22T06:28:59;99097.09;;;3.36;100.00
4767;BME280;2397;53.576;9.746;2023-12-22T06:31:26;99099.66;;;3.45;100.00
4767;BME280;2397;53.576;9.746;2023-12-22T06:33:53;99133.97;;;3.41;100.00
4767;BME280;2397;53.576;9.746;2023-12-22T06:36:24;99128.47;;;3.17;100.00
4767;BME280;2397;53.576;9.746;2023-12-22T06:38:52;99103.72;;;3.03;100.00
4767;BME280;2397;53.576;9.746;2023-12-22T06:41:29;99117.75;;;2.83;100.00
4767;BME280;2397;53.576;9.746;2023-12-22T06:43:57;99114.22;;;2.84;100.00
4767;BME280;2397;53.576;9.746;2023-12-22T06:46:24;99117.19;;;2.89;100.00
4767;BME280;2397;53.576;9.746;2023-12-22T06:48:55;99110.44;;;2.96;100.00
4767;BME280;2397;53.576;9.746;2023-12-22T06:51:27;99143.31;;;3.07;100.00
4767;BME280;2397;53.576;9.746;2023-12-22T06:53:54;99164.56;;;3.21;100.00
4767;BME280;2397;53.576;9.746;2023-12-22T06:56:23;99145.25;;;3.41;100.00
4767;BME280;2397;53.576;9.746;2023-12-22T06:58:52;99166.31;;;3.21;100.00
4767;BME280;2397;53.576;9.746;2023-12-22T07:01:26;99161.97;;;3.02;100.00
4767;BME280;2397;53.576;9.746;2023-12-22T07:03:54;99166.78;;;3.07;100.00
4767;BME280;2397;53.576;9.746;2023-12-22T07:06:22;99159.78;;;3.07;100.00
4767;BME280;2397;53.576;9.746;2023-12-22T07:11:40;99159.09;;;3.05;100.00
4767;BME280;2397;53.576;9.746;2023-12-22T07:14:07;99162.31;;;3.26;100.00
4767;BME280;2397;53.576;9.746;2023-12-22T07:16:35;99156.84;;;3.29;100.00
4767;BME280;2397;53.576;9.746;2023-12-22T07:19:02;99167.44;;;3.45;100.00
4767;BME280;2397;53.576;9.746;2023-12-22T07:21:29;99161.81;;;3.50;100.00
4767;BME280;2397;53.576;9.746;2023-12-22T07:23:56;99170.09;;;3.63;99.91
4767;BME280;2397;53.576;9.746;2023-12-22T07:26:22;99164.59;;;3.66;97.66
4767;BME280;2397;53.576;9.746;2023-12-22T07:28:50;99197.53;;;3.77;97.83
4767;BME280;2397;53.576;9.746;2023-12-22T07:31:19;99242.97;;;4.01;94.43
4767;BME280;2397;53.576;9.746;2023-12-22T07:33:46;99240.16;;;3.21;100.00
4767;BME280;2397;53.576;9.746;2023-12-22T07:36:14;99234.03;;;2.46;100.00
4767;BME280;2397;53.576;9.746;2023-12-22T07:38:40;99249.75;;;2.16;100.00
4767;BME280;2397;53.576;9.746;2023-12-22T07:41:07;99246.31;;;2.06;100.00
4767;BME280;2397;53.576;9.746;2023-12-22T07:43:34;99243.28;;;1.92;100.00
4767;BME280;2397;53.576;9.746;2023-12-22T07:46:01;99289.97;;;1.93;100.00
4767;BME280;2397;53.576;9.746;2023-12-22T07:48:29;99267.13;;;2.06;100.00
4767;BME280;2397;53.576;9.746;2023-12-22T07:50:56;99271.41;;;2.07;100.00
4767;BME280;2397;53.576;9.746;2023-12-22T07:53:22;99283.59;;;2.16;100.00
4767;BME280;2397;53.576;9.746;2023-12-22T07:55:49;99274.31;;;2.23;100.00
4767;BME280;2397;53.576;9.746;2023-12-22T07:58:16;99286.94;;;2.47;100.00
4767;BME280;2397;53.576;9.746;2023-12-22T08:00:44;99279.00;;;2.48;100.00
4767;BME280;2397;53.576;9.746;2023-12-22T08:03:12;99273.94;;;2.56;100.00
4767;BME280;2397;53.576;9.746;2023-12-22T08:05:39;99267.47;;;2.89;100.00
4767;BME280;2397;53.576;9.746;2023-12-22T08:08:05;99275.28;;;2.98;100.00
4767;BME280;2397;53.576;9.746;2023-12-22T08:10:32;99277.88;;;3.08;100.00
4767;BME280;2397;53.576;9.746;2023-12-22T08:12:59;99270.75;;;3.19;100.00
4767;BME280;2397;53.576;9.746;2023-12-22T08:15:25;99275.69;;;3.59;100.00
4767;BME280;2397;53.576;9.746;2023-12-22T08:18:02;99275.78;;;3.77;100.00
4767;BME280;2397;53.576;9.746;2023-12-22T08:20:28;99288.31;;;4.00;100.00
4767;BME280;2397;53.576;9.746;2023-12-22T08:23:02;99300.25;;;4.03;100.00
4767;BME280;2397;53.576;9.746;2023-12-22T08:25:35;99312.25;;;3.96;100.00
4767;BME280;2397;53.576;9.746;2023-12-22T08:28:02;99313.53;;;3.72;100.00
4767;BME280;2397;53.576;9.746;2023-12-22T08:30:29;99316.09;;;3.45;100.00
4767;BME280;2397;53.576;9.746;2023-12-22T08:32:55;99304.34;;;3.22;100.00
4767;BME280;2397;53.576;9.746;2023-12-22T08:35:22;99305.31;;;3.21;100.00
4767;BME280;2397;53.576;9.746;2023-12-22T08:37:48;99307.06;;;3.30;100.00
4767;BME280;2397;53.576;9.746;2023-12-22T08:40:15;99319.13;;;3.41;100.00
4767;BME280;2397;53.576;9.746;2023-12-22T08:42:42;99302.06;;;3.66;100.00
4767;BME280;2397;53.576;9.746;2023-12-22T08:45:09;99319.28;;;3.86;99.84
4767;BME280;2397;53.576;9.746;2023-12-22T08:47:36;99356.72;;;4.04;98.28
4767;BME280;2397;53.576;9.746;2023-12-22T08:50:02;99363.56;;;4.05;98.02
4767;BME280;2397;53.576;9.746;2023-12-22T08:52:31;99347.91;;;3.68;99.50
4767;BME280;2397;53.576;9.746;2023-12-22T08:54:57;99344.53;;;3.39;99.97
4767;BME280;2397;53.576;9.746;2023-12-22T08:57:24;99337.97;;;3.25;100.00
4767;BME280;2397;53.576;9.746;2023-12-22T08:59:50;99343.44;;;3.41;98.35
4767;BME280;2397;53.576;9.746;2023-12-22T09:02:17;99354.63;;;3.71;95.33
4767;BME280;2397;53.576;9.746;2023-12-22T09:04:44;99338.66;;;3.83;92.18
4767;BME280;2397;53.576;9.746;2023-12-22T09:07:10;99332.00;;;3.98;89.34
4767;BME280;2397;53.576;9.746;2023-12-22T09:09:38;99351.22;;;4.07;86.80
4767;BME280;2397;53.576;9.746;2023-12-22T09:12:05;99342.66;;;4.14;86.87
4767;BME280;2397;53.576;9.746;2023-12-22T09:14:31;99346.94;;;4.15;85.74
4767;BME280;2397;53.576;9.746;2023-12-22T09:16:58;99347.81;;;4.24;84.16
4767;BME280;2397;53.576;9.746;2023-12-22T09:19:24;99357.97;;;4.27;85.06
4767;BME280;2397;53.576;9.746;2023-12-22T09:21:53;99355.94;;;4.30;84.18
4767;BME280;2397;53.576;9.746;2023-12-22T09:24:20;99351.97;;;4.26;84.08
4767;BME280;2397;53.576;9.746;2023-12-22T09:26:47;99359.94;;;4.25;83.80
4767;BME280;2397;53.576;9.746;2023-12-22T09:29:14;99352.75;;;4.27;84.45
4767;BME280;2397;53.576;9.746;2023-12-22T09:31:41;99354.72;;;4.25;83.88
4767;BME280;2397;53.576;9.746;2023-12-22T09:34:07;99353.50;;;4.19;84.22
4767;BME280;2397;53.576;9.746;2023-12-22T09:36:34;99360.13;;;4.14;85.37
4767;BME280;2397;53.576;9.746;2023-12-22T09:39:00;99349.50;;;4.25;84.28
4767;BME280;2397;53.576;9.746;2023-12-22T09:41:27;99353.59;;;4.27;82.88
4767;BME280;2397;53.576;9.746;2023-12-22T09:43:55;99362.94;;;4.30;84.22
4767;BME280;2397;53.576;9.746;2023-12-22T09:46:23;99377.34;;;4.34;84.07
4767;BME280;2397;53.576;9.746;2023-12-22T09:48:51;99352.59;;;4.55;83.73
4767;BME280;2397;53.576;9.746;2023-12-22T09:51:18;99337.84;;;4.81;81.66
4767;BME280;2397;53.576;9.746;2023-12-22T09:53:46;99337.59;;;5.02;79.49
4767;BME280;2397;53.576;9.746;2023-12-22T09:56:14;99343.25;;;5.15;79.34
4767;BME280;2397;53.576;9.746;2023-12-22T09:58:41;99342.78;;;5.19;79.52
4767;BME280;2397;53.576;9.746;2023-12-22T10:01:08;99336.44;;;5.22;79.77
4767;BME280;2397;53.576;9.746;2023-12-22T10:03:36;99350.03;;;5.08;80.51
4767;BME280;2397;53.576;9.746;2023-12-22T10:06:03;99357.13;;;4.98;82.85
4767;BME280;2397;53.576;9.746;2023-12-22T10:08:30;99361.00;;;4.94;82.67
4767;BME280;2397;53.576;9.746;2023-12-22T10:10:57;99361.84;;;4.94;83.64
4767;BME280;2397;53.576;9.746;2023-12-22T10:13:24;99365.16;;;4.96;84.57
4767;BME280;2397;53.576;9.746;2023-12-22T10:15:54;99365.94;;;4.97;84.78
4767;BME280;2397;53.576;9.746;2023-12-22T10:18:22;99363.63;;;4.94;85.62
4767;BME280;2397;53.576;9.746;2023-12-22T10:20:48;99363.78;;;4.92;85.75
4767;BME280;2397;53.576;9.746;2023-12-22T10:23:15;99353.72;;;4.97;85.29
4767;BME280;2397;53.576;9.746;2023-12-22T10:25:42;99359.75;;;4.98;84.85
4767;BME280;2397;53.576;9.746;2023-12-22T10:28:11;99346.00;;;4.96;85.85
4767;BME280;2397;53.576;9.746;2023-12-22T10:30:40;99340.78;;;4.96;85.65
4767;BME280;2397;53.576;9.746;2023-12-22T10:33:07;99342.72;;;4.94;85.32
4767;BME280;2397;53.576;9.746;2023-12-22T10:35:34;99362.34;;;4.80;89.02
4767;BME280;2397;53.576;9.746;2023-12-22T10:38:01;99372.06;;;4.43;95.15
4767;BME280;2397;53.576;9.746;2023-12-22T10:40:30;99398.66;;;3.93;100.00
4767;BME280;2397;53.576;9.746;2023-12-22T10:42:58;99394.69;;;3.89;100.00
4767;BME280;2397;53.576;9.746;2023-12-22T10:45:27;99397.47;;;3.78;100.00
4767;BME280;2397;53.576;9.746;2023-12-22T10:47:55;99409.03;;;3.66;100.00
4767;BME280;2397;53.576;9.746;2023-12-22T10:50:22;99421.94;;;3.38;100.00
4767;BME280;2397;53.576;9.746;2023-12-22T10:52:51;99419.19;;;3.21;100.00
4767;BME280;2397;53.576;9.746;2023-12-22T10:55:19;99419.59;;;3.16;100.00
4767;BME280;2397;53.576;9.746;2023-12-22T10:57:46;99433.19;;;3.10;100.00
4767;BME280;2397;53.576;9.746;2023-12-22T11:00:16;99427.97;;;3.01;100.00
4767;BME280;2397;53.576;9.746;2023-12-22T11:02:47;99444.28;;;3.03;100.00
4767;BME280;2397;53.576;9.746;2023-12-22T11:05:18;99455.66;;;2.92;100.00
4767;BME280;2397;53.576;9.746;2023-12-22T11:07:48;99435.06;;;2.89;100.00
4767;BME280;2397;53.576;9.746;2023-12-22T11:10:20;99450.69;;;2.89;100.00
4767;BME280;2397;53.576;9.746;2023-12-22T11:12:47;99437.91;;;2.77;100.00
4767;BME280;2397;53.576;9.746;2023-12-22T11:15:14;99422.13;;;2.59;100.00
4767;BME280;2397;53.576;9.746;2023-12-22T11:17:42;99427.59;;;2.56;100.00
4767;BME280;2397;53.576;9.746;2023-12-22T11:20:09;99419.34;;;2.51;100.00
4767;BME280;2397;53.576;9.746;2023-12-22T11:22:38;99421.97;;;2.51;100.00
4767;BME280;2397;53.576;9.746;2023-12-22T11:25:08;99407.72;;;2.55;100.00
4767;BME280;2397;53.576;9.746;2023-12-22T11:27:37;99425.84;;;2.66;100.00
4767;BME280;2397;53.576;9.746;2023-12-22T11:30:07;99393.09;;;2.73;100.00
4767;BME280;2397;53.576;9.746;2023-12-22T11:32:35;99399.09;;;2.64;100.00
4767;BME280;2397;53.576;9.746;2023-12-22T11:35:02;99390.63;;;2.72;100.00
4767;BME280;2397;53.576;9.746;2023-12-22T11:37:30;99396.09;;;2.78;100.00
4767;BME280;2397;53.576;9.746;2023-12-22T11:39:57;99398.72;;;2.88;100.00
4767;BME280;2397;53.576;9.746;2023-12-22T11:42:28;99413.13;;;2.82;100.00
4767;BME280;2397;53.576;9.746;2023-12-22T11:44:55;99395.28;;;2.78;100.00
4767;BME280;2397;53.576;9.746;2023-12-22T11:47:23;99392.25;;;2.73;100.00
4767;BME280;2397;53.576;9.746;2023-12-22T11:49:50;99394.16;;;2.71;100.00
4767;BME280;2397;53.576;9.746;2023-12-22T11:52:25;99393.09;;;2.73;100.00
4767;BME280;2397;53.576;9.746;2023-12-22T11:54:55;99383.22;;;2.86;100.00
4767;BME280;2397;53.576;9.746;2023-12-22T11:59:55;99385.16;;;3.03;100.00
4767;BME280;2397;53.576;9.746;2023-12-22T12:02:22;99380.63;;;3.24;100.00
4767;BME280;2397;53.576;9.746;2023-12-22T12:04:50;99379.41;;;3.38;100.00
4767;BME280;2397;53.576;9.746;2023-12-22T12:07:40;99383.25;;;3.43;100.00
4767;BME280;2397;53.576;9.746;2023-12-22T12:10:07;99382.66;;;3.49;100.00
4767;BME280;2397;53.576;9.746;2023-12-22T12:12:36;99377.03;;;3.63;100.00
4767;BME280;2397;53.576;9.746;2023-12-22T12:15:08;99388.13;;;3.75;100.00
4767;BME280;2397;53.576;9.746;2023-12-22T12:17:40;99388.34;;;3.91;100.00
4767;BME280;2397;53.576;9.746;2023-12-22T12:20:07;99383.81;;;4.30;100.00
4767;BME280;2397;53.576;9.746;2023-12-22T12:22:35;99365.81;;;4.54;100.00
4767;BME280;2397;53.576;9.746;2023-12-22T12:25:08;99367.56;;;4.63;100.00
4767;BME280;2397;53.576;9.746;2023-12-22T12:28:05;99379.66;;;4.37;100.00
4767;BME280;2397;53.576;9.746;2023-12-22T12:30:33;99366.50;;;4.29;100.00
4767;BME280;2397;53.576;9.746;2023-12-22T12:33:09;99361.28;;;4.29;100.00
4767;BME280;2397;53.576;9.746;2023-12-22T12:35:41;99364.69;;;4.29;100.00
4767;BME280;2397;53.576;9.746;2023-12-22T12:38:16;99367.03;;;4.32;100.00
4767;BME280;2397;53.576;9.746;2023-12-22T12:40:45;99371.97;;;4.35;100.00
4767;BME280;2397;53.576;9.746;2023-12-22T12:43:12;99369.22;;;4.37;100.00
4767;BME280;2397;53.576;9.746;2023-12-22T12:45:40;99371.91;;;4.45;100.00
4767;BME280;2397;53.576;9.746;2023-12-22T12:48:07;99376.56;;;4.51;100.00
4767;BME280;2397;53.576;9.746;2023-12-22T12:50:34;99380.69;;;4.53;100.00
4767;BME280;2397;53.576;9.746;2023-12-22T12:53:02;99367.19;;;4.58;100.00
4767;BME280;2397;53.576;9.746;2023-12-22T12:55:29;99372.25;;;4.59;100.00
4767;BME280;2397;53.576;9.746;2023-12-22T12:57:56;99369.09;;;4.56;100.00
4767;BME280;2397;53.576;9.746;2023-12-22T13:00:30;99357.53;;;4.58;100.00
4767;BME280;2397;53.576;9.746;2023-12-22T13:03:00;99365.22;;;4.60;100.00
4767;BME280;2397;53.576;9.746;2023-12-22T13:05:30;99359.72;;;4.63;100.00
4767;BME280;2397;53.576;9.746;2023-12-22T13:10:33;99357.63;;;4.66;100.00
4767;BME280;2397;53.576;9.746;2023-12-22T13:12:59;99340.16;;;4.67;100.00
4767;BME280;2397;53.576;9.746;2023-12-22T13:15:26;99351.13;;;4.70;100.00
4767;BME280;2397;53.576;9.746;2023-12-22T13:17:53;99344.81;;;4.73;100.00
4767;BME280;2397;53.576;9.746;2023-12-22T13:20:22;99342.84;;;4.75;100.00
4767;BME280;2397;53.576;9.746;2023-12-22T13:22:48;99340.63;;;4.80;100.00
4767;BME280;2397;53.576;9.746;2023-12-22T13:25:15;99339.81;;;4.79;100.00
4767;BME280;2397;53.576;9.746;2023-12-22T13:27:49;99339.94;;;4.78;100.00
4767;BME280;2397;53.576;9.746;2023-12-22T13:30:36;99342.06;;;4.74;100.00
4767;BME280;2397;53.576;9.746;2023-12-22T13:33:04;99348.91;;;4.75;100.00
4767;BME280;2397;53.576;9.746;2023-12-22T13:35:31;99346.97;;;4.77;100.00